sensor_id;sensor_type;location;lat;lon;timestamp;P1;durP1;ratioP1;P2;durP2;ratioP2
67762;SDS011;54566;52.022;5.582;2023-06-26T00:00:56;17.45;;;11.60;;
67762;SDS011;54566;52.022;5.582;2023-06-26T00:03:22;19.70;;;11.18;;
67762;SDS011;54566;52.022;5.582;2023-06-26T00:05:48;14.85;;;11.32;;
67762;SDS011;54566;52.022;5.582;2023-06-26T00:08:15;17.75;;;12.00;;
67762;SDS011;54566;52.022;5.582;2023-06-26T00:10:41;16.42;;;11.35;;
67762;SDS011;54566;52.022;5.582;2023-06-26T00:13:07;15.82;;;10.90;;
67762;SDS011;54566;52.022;5.582;2023-06-26T00:15:37;16.67;;;11.35;;
67762;SDS011;54566;52.022;5.582;2023-06-26T00:18:03;16.73;;;12.05;;
67762;SDS011;54566;52.022;5.582;2023-06-26T00:20:29;17.27;;;11.25;;
67762;SDS011;54566;52.022;5.582;2023-06-26T00:22:59;20.20;;;11.13;;
67762;SDS011;54566;52.022;5.582;2023-06-26T00:25:25;20.20;;;11.57;;
67762;SDS011;54566;52.022;5.582;2023-06-26T00:27:51;14.32;;;10.23;;
67762;SDS011;54566;52.022;5.582;2023-06-26T00:30:17;23.25;;;11.90;;
67762;SDS011;54566;52.022;5.582;2023-06-26T00:32:45;14.57;;;10.82;;
67762;SDS011;54566;52.022;5.582;2023-06-26T00:35:11;15.30;;;11.15;;
67762;SDS011;54566;52.022;5.582;2023-06-26T00:37:37;14.73;;;10.82;;
67762;SDS011;54566;52.022;5.582;2023-06-26T00:40:03;14.27;;;10.75;;
67762;SDS011;54566;52.022;5.582;2023-06-26T00:44:57;14.43;;;9.60;;
67762;SDS011;54566;52.022;5.582;2023-06-26T00:47:23;13.73;;;9.02;;
67762;SDS011;54566;52.022;5.582;2023-06-26T00:49:50;14.52;;;9.50;;
67762;SDS011;54566;52.022;5.582;2023-06-26T00:52:16;19.13;;;9.63;;
67762;SDS011;54566;52.022;5.582;2023-06-26T00:54:43;11.82;;;8.70;;
67762;SDS011;54566;52.022;5.582;2023-06-26T00:57:08;13.90;;;8.88;;
67762;SDS011;54566;52.022;5.582;2023-06-26T00:59:35;11.68;;;8.73;;
67762;SDS011;54566;52.022;5.582;2023-06-26T01:02:01;12.18;;;8.98;;
67762;SDS011;54566;52.022;5.582;2023-06-26T01:04:27;12.60;;;7.60;;
67762;SDS011;54566;52.022;5.582;2023-06-26T01:06:57;10.98;;;8.50;;
67762;SDS011;54566;52.022;5.582;2023-06-26T01:09:23;14.18;;;8.48;;
67762;SDS011;54566;52.022;5.582;2023-06-26T01:11:49;11.50;;;8.07;;
67762;SDS011;54566;52.022;5.582;2023-06-26T01:14:17;11.35;;;8.13;;
67762;SDS011;54566;52.022;5.582;2023-06-26T01:16:43;14.85;;;8.73;;
67762;SDS011;54566;52.022;5.582;2023-06-26T01:19:18;12.55;;;7.55;;
67762;SDS011;54566;52.022;5.582;2023-06-26T01:21:49;14.23;;;9.07;;
67762;SDS011;54566;52.022;5.582;2023-06-26T01:24:17;12.73;;;8.15;;
67762;SDS011;54566;52.022;5.582;2023-06-26T01:26:52;23.92;;;7.00;;
67762;SDS011;54566;52.022;5.582;2023-06-26T01:29:19;9.52;;;6.65;;
67762;SDS011;54566;52.022;5.582;2023-06-26T01:31:48;12.48;;;6.85;;
67762;SDS011;54566;52.022;5.582;2023-06-26T01:34:15;13.32;;;6.47;;
67762;SDS011;54566;52.022;5.582;2023-06-26T01:36:43;10.10;;;6.65;;
67762;SDS011;54566;52.022;5.582;2023-06-26T01:39:14;7.90;;;5.80;;
67762;SDS011;54566;52.022;5.582;2023-06-26T01:41:40;11.73;;;6.10;;
67762;SDS011;54566;52.022;5.582;2023-06-26T01:52:14;9.20;;;4.63;;
67762;SDS011;54566;52.022;5.582;2023-06-26T01:54:46;20.73;;;4.72;;
67762;SDS011;54566;52.022;5.582;2023-06-26T01:57:14;10.60;;;4.32;;
67762;SDS011;54566;52.022;5.582;2023-06-26T01:59:44;6.10;;;4.05;;
67762;SDS011;54566;52.022;5.582;2023-06-26T02:02:11;9.60;;;4.22;;
67762;SDS011;54566;52.022;5.582;2023-06-26T02:04:39;10.35;;;4.50;;
67762;SDS011;54566;52.022;5.582;2023-06-26T02:07:06;11.85;;;4.20;;
67762;SDS011;54566;52.022;5.582;2023-06-26T02:09:34;7.95;;;4.35;;
67762;SDS011;54566;52.022;5.582;2023-06-26T02:12:00;9.35;;;3.85;;
67762;SDS011;54566;52.022;5.582;2023-06-26T02:14:26;13.52;;;5.03;;
67762;SDS011;54566;52.022;5.582;2023-06-26T02:16:52;12.65;;;4.35;;
67762;SDS011;54566;52.022;5.582;2023-06-26T02:19:18;11.45;;;4.38;;
67762;SDS011;54566;52.022;5.582;2023-06-26T02:24:12;7.00;;;3.53;;
67762;SDS011;54566;52.022;5.582;2023-06-26T02:26:38;8.85;;;3.72;;
67762;SDS011;54566;52.022;5.582;2023-06-26T02:29:04;9.23;;;3.75;;
67762;SDS011;54566;52.022;5.582;2023-06-26T02:31:30;12.05;;;4.00;;
67762;SDS011;54566;52.022;5.582;2023-06-26T02:33:56;10.05;;;3.90;;
67762;SDS011;54566;52.022;5.582;2023-06-26T02:36:22;13.85;;;5.55;;
67762;SDS011;54566;52.022;5.582;2023-06-26T02:38:48;12.68;;;3.83;;
67762;SDS011;54566;52.022;5.582;2023-06-26T02:41:14;12.55;;;4.00;;
67762;SDS011;54566;52.022;5.582;2023-06-26T02:43:40;12.93;;;4.32;;
67762;SDS011;54566;52.022;5.582;2023-06-26T02:46:06;11.80;;;4.65;;
67762;SDS011;54566;52.022;5.582;2023-06-26T02:48:32;11.00;;;3.78;;
67762;SDS011;54566;52.022;5.582;2023-06-26T02:50:59;13.60;;;4.07;;
67762;SDS011;54566;52.022;5.582;2023-06-26T02:53:25;9.85;;;4.10;;
67762;SDS011;54566;52.022;5.582;2023-06-26T02:55:51;12.90;;;4.63;;
67762;SDS011;54566;52.022;5.582;2023-06-26T02:58:17;12.45;;;4.55;;
67762;SDS011;54566;52.022;5.582;2023-06-26T03:00:43;9.43;;;3.95;;
67762;SDS011;54566;52.022;5.582;2023-06-26T03:03:09;12.80;;;4.28;;
67762;SDS011;54566;52.022;5.582;2023-06-26T03:05:37;14.77;;;4.82;;
67762;SDS011;54566;52.022;5.582;2023-06-26T03:08:04;12.82;;;4.63;;
67762;SDS011;54566;52.022;5.582;2023-06-26T03:10:31;10.02;;;4.10;;
67762;SDS011;54566;52.022;5.582;2023-06-26T03:12:57;14.02;;;4.32;;
67762;SDS011;54566;52.022;5.582;2023-06-26T03:15:23;20.08;;;4.68;;
67762;SDS011;54566;52.022;5.582;2023-06-26T03:17:49;17.77;;;4.85;;
67762;SDS011;54566;52.022;5.582;2023-06-26T03:20:15;16.25;;;4.80;;
67762;SDS011;54566;52.022;5.582;2023-06-26T03:22:42;16.17;;;4.72;;
67762;SDS011;54566;52.022;5.582;2023-06-26T03:25:08;12.13;;;4.50;;
67762;SDS011;54566;52.022;5.582;2023-06-26T03:27:34;13.95;;;5.00;;
67762;SDS011;54566;52.022;5.582;2023-06-26T03:30:00;17.95;;;4.90;;
67762;SDS011;54566;52.022;5.582;2023-06-26T03:32:26;15.82;;;4.63;;
67762;SDS011;54566;52.022;5.582;2023-06-26T03:34:52;15.52;;;4.90;;
67762;SDS011;54566;52.022;5.582;2023-06-26T03:37:18;17.88;;;4.68;;
67762;SDS011;54566;52.022;5.582;2023-06-26T03:39:44;15.93;;;5.35;;
67762;SDS011;54566;52.022;5.582;2023-06-26T03:42:10;18.33;;;4.65;;
67762;SDS011;54566;52.022;5.582;2023-06-26T03:44:36;17.40;;;5.60;;
67762;SDS011;54566;52.022;5.582;2023-06-26T03:47:02;16.35;;;5.13;;
67762;SDS011;54566;52.022;5.582;2023-06-26T03:49:29;19.60;;;5.55;;
67762;SDS011;54566;52.022;5.582;2023-06-26T03:51:55;19.98;;;4.97;;
67762;SDS011;54566;52.022;5.582;2023-06-26T03:54:21;14.63;;;4.72;;
67762;SDS011;54566;52.022;5.582;2023-06-26T03:56:47;21.42;;;5.30;;
67762;SDS011;54566;52.022;5.582;2023-06-26T03:59:13;18.45;;;4.88;;
67762;SDS011;54566;52.022;5.582;2023-06-26T04:01:39;22.42;;;5.65;;
67762;SDS011;54566;52.022;5.582;2023-06-26T04:04:05;19.70;;;4.93;;
67762;SDS011;54566;52.022;5.582;2023-06-26T04:06:31;13.90;;;4.90;;
67762;SDS011;54566;52.022;5.582;2023-06-26T04:08:57;19.48;;;4.90;;
67762;SDS011;54566;52.022;5.582;2023-06-26T04:11:23;18.63;;;5.47;;
67762;SDS011;54566;52.022;5.582;2023-06-26T04:13:50;16.85;;;5.38;;
67762;SDS011;54566;52.022;5.582;2023-06-26T04:16:16;15.68;;;5.07;;
67762;SDS011;54566;52.022;5.582;2023-06-26T04:18:45;15.90;;;5.23;;
67762;SDS011;54566;52.022;5.582;2023-06-26T04:21:12;21.52;;;5.70;;
67762;SDS011;54566;52.022;5.582;2023-06-26T04:23:38;15.93;;;5.40;;
67762;SDS011;54566;52.022;5.582;2023-06-26T04:26:06;21.80;;;5.88;;
67762;SDS011;54566;52.022;5.582;2023-06-26T04:28:33;25.02;;;5.20;;
67762;SDS011;54566;52.022;5.582;2023-06-26T04:31:00;21.50;;;5.68;;
67762;SDS011;54566;52.022;5.582;2023-06-26T04:33:28;22.63;;;5.60;;
67762;SDS011;54566;52.022;5.582;2023-06-26T04:35:54;14.80;;;5.70;;
67762;SDS011;54566;52.022;5.582;2023-06-26T04:38:20;21.92;;;5.55;;
67762;SDS011;54566;52.022;5.582;2023-06-26T04:40:50;26.75;;;5.55;;
67762;SDS011;54566;52.022;5.582;2023-06-26T04:43:16;17.52;;;5.03;;
67762;SDS011;54566;52.022;5.582;2023-06-26T04:45:42;23.23;;;5.00;;
67762;SDS011;54566;52.022;5.582;2023-06-26T04:48:10;22.92;;;5.35;;
67762;SDS011;54566;52.022;5.582;2023-06-26T04:50:39;23.52;;;5.70;;
67762;SDS011;54566;52.022;5.582;2023-06-26T04:53:05;14.48;;;4.78;;
67762;SDS011;54566;52.022;5.582;2023-06-26T04:55:31;18.35;;;5.25;;
67762;SDS011;54566;52.022;5.582;2023-06-26T04:57:57;15.95;;;4.85;;
67762;SDS011;54566;52.022;5.582;2023-06-26T05:00:24;17.58;;;4.90;;
67762;SDS011;54566;52.022;5.582;2023-06-26T05:02:51;15.63;;;4.40;;
67762;SDS011;54566;52.022;5.582;2023-06-26T05:05:26;19.23;;;5.05;;
67762;SDS011;54566;52.022;5.582;2023-06-26T05:07:53;18.05;;;5.07;;
67762;SDS011;54566;52.022;5.582;2023-06-26T05:10:19;20.02;;;5.05;;
67762;SDS011;54566;52.022;5.582;2023-06-26T05:12:45;14.50;;;4.63;;
67762;SDS011;54566;52.022;5.582;2023-06-26T05:15:11;14.07;;;4.80;;
67762;SDS011;54566;52.022;5.582;2023-06-26T05:17:38;20.60;;;4.65;;
67762;SDS011;54566;52.022;5.582;2023-06-26T05:20:04;15.77;;;5.15;;
67762;SDS011;54566;52.022;5.582;2023-06-26T05:22:31;12.63;;;4.18;;
67762;SDS011;54566;52.022;5.582;2023-06-26T05:24:58;14.40;;;4.28;;
67762;SDS011;54566;52.022;5.582;2023-06-26T05:27:28;15.70;;;3.95;;
67762;SDS011;54566;52.022;5.582;2023-06-26T05:30:35;14.45;;;3.92;;
67762;SDS011;54566;52.022;5.582;2023-06-26T05:33:02;9.77;;;3.40;;
67762;SDS011;54566;52.022;5.582;2023-06-26T05:35:33;16.38;;;3.50;;
67762;SDS011;54566;52.022;5.582;2023-06-26T05:38:22;14.23;;;3.88;;
67762;SDS011;54566;52.022;5.582;2023-06-26T05:40:49;13.05;;;3.85;;
67762;SDS011;54566;52.022;5.582;2023-06-26T05:43:15;16.02;;;3.78;;
67762;SDS011;54566;52.022;5.582;2023-06-26T05:45:41;10.73;;;3.58;;
67762;SDS011;54566;52.022;5.582;2023-06-26T05:48:07;9.75;;;3.20;;
67762;SDS011;54566;52.022;5.582;2023-06-26T05:50:33;7.43;;;3.25;;
67762;SDS011;54566;52.022;5.582;2023-06-26T05:52:59;11.18;;;3.15;;
67762;SDS011;54566;52.022;5.582;2023-06-26T05:55:31;10.23;;;3.38;;
67762;SDS011;54566;52.022;5.582;2023-06-26T05:57:58;10.30;;;3.00;;
67762;SDS011;54566;52.022;5.582;2023-06-26T06:00:24;7.60;;;2.97;;
67762;SDS011;54566;52.022;5.582;2023-06-26T06:02:51;8.32;;;2.85;;
67762;SDS011;54566;52.022;5.582;2023-06-26T06:05:19;7.55;;;2.90;;
67762;SDS011;54566;52.022;5.582;2023-06-26T06:07:46;7.35;;;2.72;;
67762;SDS011;54566;52.022;5.582;2023-06-26T06:10:12;7.15;;;2.65;;
67762;SDS011;54566;52.022;5.582;2023-06-26T06:12:38;5.55;;;2.47;;
67762;SDS011;54566;52.022;5.582;2023-06-26T06:15:05;5.22;;;2.60;;
67762;SDS011;54566;52.022;5.582;2023-06-26T06:17:31;7.20;;;3.00;;
67762;SDS011;54566;52.022;5.582;2023-06-26T06:19:57;8.85;;;2.70;;
67762;SDS011;54566;52.022;5.582;2023-06-26T06:22:23;6.43;;;2.60;;
67762;SDS011;54566;52.022;5.582;2023-06-26T06:24:50;5.45;;;2.60;;
67762;SDS011;54566;52.022;5.582;2023-06-26T06:27:24;5.45;;;2.10;;
67762;SDS011;54566;52.022;5.582;2023-06-26T06:29:50;5.90;;;2.53;;
67762;SDS011;54566;52.022;5.582;2023-06-26T06:32:16;6.25;;;2.08;;
67762;SDS011;54566;52.022;5.582;2023-06-26T06:34:42;7.45;;;2.85;;
67762;SDS011;54566;52.022;5.582;2023-06-26T06:37:08;6.72;;;2.33;;
67762;SDS011;54566;52.022;5.582;2023-06-26T06:39:34;7.32;;;2.58;;
67762;SDS011;54566;52.022;5.582;2023-06-26T06:42:00;11.50;;;2.75;;
67762;SDS011;54566;52.022;5.582;2023-06-26T06:44:26;8.98;;;2.15;;
67762;SDS011;54566;52.022;5.582;2023-06-26T06:46:52;5.25;;;2.35;;
67762;SDS011;54566;52.022;5.582;2023-06-26T06:49:19;6.13;;;2.67;;
67762;SDS011;54566;52.022;5.582;2023-06-26T06:51:45;7.18;;;2.17;;
67762;SDS011;54566;52.022;5.582;2023-06-26T06:54:11;7.90;;;2.45;;
67762;SDS011;54566;52.022;5.582;2023-06-26T06:56:37;6.18;;;2.30;;
67762;SDS011;54566;52.022;5.582;2023-06-26T06:59:03;9.23;;;3.13;;
67762;SDS011;54566;52.022;5.582;2023-06-26T07:01:29;7.20;;;2.83;;
67762;SDS011;54566;52.022;5.582;2023-06-26T07:03:55;6.22;;;2.10;;
67762;SDS011;54566;52.022;5.582;2023-06-26T07:06:22;4.93;;;2.10;;
67762;SDS011;54566;52.022;5.582;2023-06-26T07:08:48;7.43;;;2.50;;
67762;SDS011;54566;52.022;5.582;2023-06-26T07:11:16;6.93;;;2.80;;
67762;SDS011;54566;52.022;5.582;2023-06-26T07:13:42;8.27;;;2.92;;
67762;SDS011;54566;52.022;5.582;2023-06-26T07:16:08;5.57;;;2.50;;
67762;SDS011;54566;52.022;5.582;2023-06-26T07:18:37;6.05;;;2.45;;
67762;SDS011;54566;52.022;5.582;2023-06-26T07:21:02;10.15;;;2.90;;
67762;SDS011;54566;52.022;5.582;2023-06-26T07:23:28;8.38;;;2.90;;
67762;SDS011;54566;52.022;5.582;2023-06-26T07:25:55;5.65;;;2.55;;
67762;SDS011;54566;52.022;5.582;2023-06-26T07:28:21;9.35;;;2.85;;
67762;SDS011;54566;52.022;5.582;2023-06-26T07:30:47;9.02;;;3.00;;
67762;SDS011;54566;52.022;5.582;2023-06-26T07:33:13;8.60;;;2.63;;
67762;SDS011;54566;52.022;5.582;2023-06-26T07:41:19;3.78;;;2.30;;
67762;SDS011;54566;52.022;5.582;2023-06-26T07:47:04;7.63;;;2.67;;
67762;SDS011;54566;52.022;5.582;2023-06-26T07:49:43;15.90;;;2.70;;
67762;SDS011;54566;52.022;5.582;2023-06-26T07:55:17;9.75;;;3.10;;
67762;SDS011;54566;52.022;5.582;2023-06-26T07:57:48;8.52;;;2.95;;
67762;SDS011;54566;52.022;5.582;2023-06-26T08:00:23;7.90;;;2.80;;
67762;SDS011;54566;52.022;5.582;2023-06-26T08:02:49;6.97;;;2.75;;
67762;SDS011;54566;52.022;5.582;2023-06-26T08:05:15;6.15;;;2.72;;
67762;SDS011;54566;52.022;5.582;2023-06-26T08:07:41;8.02;;;2.90;;
67762;SDS011;54566;52.022;5.582;2023-06-26T08:10:07;8.00;;;3.00;;
67762;SDS011;54566;52.022;5.582;2023-06-26T08:12:33;13.07;;;3.20;;
67762;SDS011;54566;52.022;5.582;2023-06-26T08:14:59;8.43;;;2.80;;
67762;SDS011;54566;52.022;5.582;2023-06-26T08:17:27;8.07;;;3.15;;
67762;SDS011;54566;52.022;5.582;2023-06-26T08:19:53;11.80;;;2.83;;
67762;SDS011;54566;52.022;5.582;2023-06-26T08:22:19;10.50;;;2.80;;
67762;SDS011;54566;52.022;5.582;2023-06-26T08:24:45;7.00;;;2.70;;
67762;SDS011;54566;52.022;5.582;2023-06-26T08:27:11;8.00;;;2.88;;
67762;SDS011;54566;52.022;5.582;2023-06-26T08:29:37;8.27;;;2.72;;
67762;SDS011;54566;52.022;5.582;2023-06-26T08:32:04;7.40;;;2.50;;
67762;SDS011;54566;52.022;5.582;2023-06-26T08:34:30;7.30;;;2.20;;
67762;SDS011;54566;52.022;5.582;2023-06-26T08:36:56;7.90;;;2.42;;
67762;SDS011;54566;52.022;5.582;2023-06-26T08:39:22;7.38;;;2.70;;
67762;SDS011;54566;52.022;5.582;2023-06-26T08:41:48;12.98;;;3.00;;
67762;SDS011;54566;52.022;5.582;2023-06-26T08:44:14;13.93;;;2.38;;
67762;SDS011;54566;52.022;5.582;2023-06-26T08:46:40;6.45;;;2.13;;
67762;SDS011;54566;52.022;5.582;2023-06-26T08:49:18;7.22;;;2.20;;
67762;SDS011;54566;52.022;5.582;2023-06-26T08:51:49;6.63;;;1.95;;
67762;SDS011;54566;52.022;5.582;2023-06-26T08:54:22;9.57;;;2.33;;
67762;SDS011;54566;52.022;5.582;2023-06-26T08:57:10;5.55;;;1.73;;
67762;SDS011;54566;52.022;5.582;2023-06-26T09:00:00;10.07;;;2.03;;
67762;SDS011;54566;52.022;5.582;2023-06-26T09:02:29;6.07;;;1.95;;
67762;SDS011;54566;52.022;5.582;2023-06-26T09:08:07;8.57;;;2.28;;
67762;SDS011;54566;52.022;5.582;2023-06-26T09:10:50;8.73;;;1.55;;
67762;SDS011;54566;52.022;5.582;2023-06-26T09:16:50;9.75;;;1.50;;
67762;SDS011;54566;52.022;5.582;2023-06-26T09:19:28;10.98;;;1.80;;
67762;SDS011;54566;52.022;5.582;2023-06-26T09:21:57;11.82;;;1.60;;
67762;SDS011;54566;52.022;5.582;2023-06-26T09:24:23;6.70;;;1.60;;
67762;SDS011;54566;52.022;5.582;2023-06-26T09:26:49;4.18;;;1.85;;
67762;SDS011;54566;52.022;5.582;2023-06-26T09:29:16;6.13;;;1.33;;
67762;SDS011;54566;52.022;5.582;2023-06-26T09:31:43;8.70;;;1.40;;
67762;SDS011;54566;52.022;5.582;2023-06-26T09:34:09;3.20;;;0.98;;
67762;SDS011;54566;52.022;5.582;2023-06-26T09:36:38;9.25;;;1.52;;
67762;SDS011;54566;52.022;5.582;2023-06-26T09:39:08;3.95;;;1.48;;
67762;SDS011;54566;52.022;5.582;2023-06-26T09:41:36;3.60;;;1.20;;
67762;SDS011;54566;52.022;5.582;2023-06-26T09:44:05;5.60;;;1.17;;
67762;SDS011;54566;52.022;5.582;2023-06-26T09:46:32;9.00;;;1.17;;
67762;SDS011;54566;52.022;5.582;2023-06-26T09:49:09;5.10;;;1.33;;
67762;SDS011;54566;52.022;5.582;2023-06-26T09:51:39;18.20;;;2.45;;
67762;SDS011;54566;52.022;5.582;2023-06-26T09:54:05;12.32;;;1.50;;
67762;SDS011;54566;52.022;5.582;2023-06-26T09:56:32;5.15;;;1.67;;
67762;SDS011;54566;52.022;5.582;2023-06-26T09:58:59;14.60;;;1.80;;
67762;SDS011;54566;52.022;5.582;2023-06-26T10:01:26;4.53;;;1.45;;
67762;SDS011;54566;52.022;5.582;2023-06-26T10:03:54;5.95;;;1.40;;
67762;SDS011;54566;52.022;5.582;2023-06-26T10:08:52;10.15;;;1.58;;
67762;SDS011;54566;52.022;5.582;2023-06-26T10:11:20;8.40;;;1.42;;
67762;SDS011;54566;52.022;5.582;2023-06-26T10:13:50;2.97;;;1.25;;
67762;SDS011;54566;52.022;5.582;2023-06-26T10:16:34;8.32;;;1.58;;
67762;SDS011;54566;52.022;5.582;2023-06-26T10:19:04;11.30;;;1.65;;
67762;SDS011;54566;52.022;5.582;2023-06-26T10:21:50;4.05;;;1.48;;
67762;SDS011;54566;52.022;5.582;2023-06-26T10:24:17;2.88;;;1.50;;
67762;SDS011;54566;52.022;5.582;2023-06-26T10:26:45;7.28;;;1.50;;
67762;SDS011;54566;52.022;5.582;2023-06-26T10:29:33;5.30;;;1.65;;
67762;SDS011;54566;52.022;5.582;2023-06-26T10:32:16;7.35;;;1.30;;
67762;SDS011;54566;52.022;5.582;2023-06-26T10:35:25;4.25;;;1.17;;
67762;SDS011;54566;52.022;5.582;2023-06-26T10:37:48;4.45;;;1.30;;
67762;SDS011;54566;52.022;5.582;2023-06-26T10:40:18;8.90;;;1.90;;
67762;SDS011;54566;52.022;5.582;2023-06-26T10:42:46;5.10;;;1.50;;
67762;SDS011;54566;52.022;5.582;2023-06-26T10:45:16;5.70;;;1.30;;
67762;SDS011;54566;52.022;5.582;2023-06-26T10:47:55;3.72;;;1.35;;
67762;SDS011;54566;52.022;5.582;2023-06-26T10:50:33;3.85;;;1.38;;
67762;SDS011;54566;52.022;5.582;2023-06-26T10:53:22;2.20;;;1.20;;
67762;SDS011;54566;52.022;5.582;2023-06-26T10:55:56;2.45;;;1.13;;
67762;SDS011;54566;52.022;5.582;2023-06-26T10:58:40;3.28;;;1.30;;
67762;SDS011;54566;52.022;5.582;2023-06-26T11:01:25;5.50;;;1.20;;
67762;SDS011;54566;52.022;5.582;2023-06-26T11:06:27;4.82;;;1.85;;
67762;SDS011;54566;52.022;5.582;2023-06-26T11:09:17;2.80;;;1.05;;
67762;SDS011;54566;52.022;5.582;2023-06-26T11:11:57;2.78;;;1.00;;
67762;SDS011;54566;52.022;5.582;2023-06-26T11:14:36;4.82;;;1.30;;
67762;SDS011;54566;52.022;5.582;2023-06-26T11:20:21;6.00;;;1.27;;
67762;SDS011;54566;52.022;5.582;2023-06-26T11:26:22;4.22;;;1.40;;
67762;SDS011;54566;52.022;5.582;2023-06-26T11:31:55;2.97;;;1.10;;
67762;SDS011;54566;52.022;5.582;2023-06-26T11:34:11;5.07;;;1.20;;
67762;SDS011;54566;52.022;5.582;2023-06-26T11:42:07;7.28;;;1.35;;
67762;SDS011;54566;52.022;5.582;2023-06-26T11:44:51;3.20;;;1.30;;
67762;SDS011;54566;52.022;5.582;2023-06-26T11:47:21;8.57;;;1.88;;
67762;SDS011;54566;52.022;5.582;2023-06-26T11:49:48;3.92;;;1.63;;
67762;SDS011;54566;52.022;5.582;2023-06-26T11:52:18;6.30;;;1.33;;
67762;SDS011;54566;52.022;5.582;2023-06-26T11:54:47;2.88;;;1.02;;
67762;SDS011;54566;52.022;5.582;2023-06-26T11:57:16;4.07;;;1.20;;
67762;SDS011;54566;52.022;5.582;2023-06-26T11:59:49;7.43;;;1.48;;
67762;SDS011;54566;52.022;5.582;2023-06-26T12:02:20;5.18;;;1.40;;
67762;SDS011;54566;52.022;5.582;2023-06-26T12:04:46;7.22;;;1.50;;
67762;SDS011;54566;52.022;5.582;2023-06-26T12:07:21;4.43;;;1.33;;
67762;SDS011;54566;52.022;5.582;2023-06-26T12:09:55;6.13;;;1.27;;
67762;SDS011;54566;52.022;5.582;2023-06-26T12:12:30;4.60;;;1.10;;
67762;SDS011;54566;52.022;5.582;2023-06-26T12:14:59;3.45;;;1.30;;
67762;SDS011;54566;52.022;5.582;2023-06-26T12:17:25;4.93;;;1.10;;
67762;SDS011;54566;52.022;5.582;2023-06-26T12:19:52;5.03;;;1.45;;
67762;SDS011;54566;52.022;5.582;2023-06-26T12:22:18;8.15;;;1.27;;
67762;SDS011;54566;52.022;5.582;2023-06-26T12:24:47;4.03;;;1.35;;
67762;SDS011;54566;52.022;5.582;2023-06-26T12:27:19;2.53;;;1.17;;
67762;SDS011;54566;52.022;5.582;2023-06-26T12:29:52;5.05;;;1.00;;
67762;SDS011;54566;52.022;5.582;2023-06-26T12:32:19;4.80;;;1.15;;
67762;SDS011;54566;52.022;5.582;2023-06-26T12:34:48;2.78;;;1.13;;
67762;SDS011;54566;52.022;5.582;2023-06-26T12:37:15;2.90;;;1.02;;
67762;SDS011;54566;52.022;5.582;2023-06-26T12:39:53;2.95;;;1.40;;
67762;SDS011;54566;52.022;5.582;2023-06-26T12:42:26;6.55;;;1.00;;
67762;SDS011;54566;52.022;5.582;2023-06-26T12:44:55;3.53;;;1.08;;
67762;SDS011;54566;52.022;5.582;2023-06-26T12:47:30;6.07;;;1.15;;
67762;SDS011;54566;52.022;5.582;2023-06-26T12:49:56;5.75;;;1.00;;
67762;SDS011;54566;52.022;5.582;2023-06-26T12:52:23;3.58;;;1.20;;
67762;SDS011;54566;52.022;5.582;2023-06-26T12:54:52;3.70;;;1.05;;
67762;SDS011;54566;52.022;5.582;2023-06-26T12:57:19;2.67;;;0.82;;
67762;SDS011;54566;52.022;5.582;2023-06-26T12:59:47;4.65;;;1.30;;
67762;SDS011;54566;52.022;5.582;2023-06-26T13:02:18;9.48;;;1.17;;
67762;SDS011;54566;52.022;5.582;2023-06-26T13:04:45;7.00;;;1.02;;
67762;SDS011;54566;52.022;5.582;2023-06-26T13:07:13;7.53;;;0.90;;
67762;SDS011;54566;52.022;5.582;2023-06-26T13:09:39;3.67;;;1.00;;
67762;SDS011;54566;52.022;5.582;2023-06-26T13:12:19;2.03;;;1.00;;
67762;SDS011;54566;52.022;5.582;2023-06-26T13:14:45;6.63;;;1.25;;
67762;SDS011;54566;52.022;5.582;2023-06-26T13:17:18;4.28;;;0.80;;
67762;SDS011;54566;52.022;5.582;2023-06-26T13:19:48;2.13;;;1.00;;
67762;SDS011;54566;52.022;5.582;2023-06-26T13:22:14;2.53;;;1.02;;
67762;SDS011;54566;52.022;5.582;2023-06-26T13:24:40;4.78;;;0.93;;
67762;SDS011;54566;52.022;5.582;2023-06-26T13:27:06;2.42;;;1.00;;
67762;SDS011;54566;52.022;5.582;2023-06-26T13:29:32;3.63;;;1.10;;
67762;SDS011;54566;52.022;5.582;2023-06-26T13:32:01;2.13;;;1.00;;
67762;SDS011;54566;52.022;5.582;2023-06-26T13:34:29;3.45;;;1.00;;
67762;SDS011;54566;52.022;5.582;2023-06-26T13:36:56;4.07;;;0.93;;
67762;SDS011;54566;52.022;5.582;2023-06-26T13:39:24;6.63;;;1.30;;
67762;SDS011;54566;52.022;5.582;2023-06-26T13:41:54;3.22;;;0.90;;
67762;SDS011;54566;52.022;5.582;2023-06-26T13:44:24;4.30;;;1.02;;
67762;SDS011;54566;52.022;5.582;2023-06-26T13:46:53;6.78;;;1.25;;
67762;SDS011;54566;52.022;5.582;2023-06-26T13:49:22;4.13;;;1.00;;
67762;SDS011;54566;52.022;5.582;2023-06-26T13:52:06;3.80;;;1.05;;
67762;SDS011;54566;52.022;5.582;2023-06-26T13:54:35;4.22;;;1.60;;
67762;SDS011;54566;52.022;5.582;2023-06-26T13:57:04;3.58;;;1.00;;
67762;SDS011;54566;52.022;5.582;2023-06-26T13:59:33;3.20;;;1.10;;
67762;SDS011;54566;52.022;5.582;2023-06-26T14:02:01;3.85;;;1.08;;
67762;SDS011;54566;52.022;5.582;2023-06-26T14:04:30;6.22;;;0.93;;
67762;SDS011;54566;52.022;5.582;2023-06-26T14:07:11;3.30;;;1.23;;
67762;SDS011;54566;52.022;5.582;2023-06-26T14:09:37;5.78;;;1.20;;
67762;SDS011;54566;52.022;5.582;2023-06-26T14:12:05;7.57;;;0.90;;
67762;SDS011;54566;52.022;5.582;2023-06-26T14:17:00;2.83;;;1.10;;
67762;SDS011;54566;52.022;5.582;2023-06-26T14:19:28;7.68;;;1.17;;
67762;SDS011;54566;52.022;5.582;2023-06-26T14:21:58;2.70;;;0.90;;
67762;SDS011;54566;52.022;5.582;2023-06-26T14:27:18;5.50;;;1.07;;
67762;SDS011;54566;52.022;5.582;2023-06-26T14:29:44;4.80;;;1.02;;
67762;SDS011;54566;52.022;5.582;2023-06-26T14:32:10;4.68;;;1.05;;
67762;SDS011;54566;52.022;5.582;2023-06-26T14:34:36;4.25;;;1.27;;
67762;SDS011;54566;52.022;5.582;2023-06-26T14:37:05;7.82;;;1.20;;
67762;SDS011;54566;52.022;5.582;2023-06-26T14:39:31;1.55;;;0.93;;
67762;SDS011;54566;52.022;5.582;2023-06-26T14:41:57;2.03;;;1.00;;
67762;SDS011;54566;52.022;5.582;2023-06-26T14:44:23;2.10;;;0.95;;
67762;SDS011;54566;52.022;5.582;2023-06-26T14:46:49;6.35;;;1.20;;
67762;SDS011;54566;52.022;5.582;2023-06-26T14:49:19;3.53;;;0.77;;
67762;SDS011;54566;52.022;5.582;2023-06-26T14:51:47;1.88;;;1.00;;
67762;SDS011;54566;52.022;5.582;2023-06-26T14:54:13;3.53;;;0.95;;
67762;SDS011;54566;52.022;5.582;2023-06-26T14:56:42;4.55;;;1.15;;
67762;SDS011;54566;52.022;5.582;2023-06-26T14:59:10;4.53;;;1.05;;
67762;SDS011;54566;52.022;5.582;2023-06-26T15:01:39;2.45;;;1.00;;
67762;SDS011;54566;52.022;5.582;2023-06-26T15:04:17;4.95;;;1.15;;
67762;SDS011;54566;52.022;5.582;2023-06-26T15:06:43;3.42;;;1.10;;
67762;SDS011;54566;52.022;5.582;2023-06-26T15:09:09;2.78;;;1.10;;
67762;SDS011;54566;52.022;5.582;2023-06-26T15:11:35;5.82;;;0.98;;
67762;SDS011;54566;52.022;5.582;2023-06-26T15:14:01;3.67;;;0.90;;
67762;SDS011;54566;52.022;5.582;2023-06-26T15:16:27;3.58;;;0.90;;
67762;SDS011;54566;52.022;5.582;2023-06-26T15:18:54;4.40;;;1.08;;
67762;SDS011;54566;52.022;5.582;2023-06-26T15:21:20;3.20;;;1.00;;
67762;SDS011;54566;52.022;5.582;2023-06-26T15:23:46;3.72;;;1.30;;
67762;SDS011;54566;52.022;5.582;2023-06-26T15:26:22;19.55;;;1.42;;
67762;SDS011;54566;52.022;5.582;2023-06-26T15:28:48;3.70;;;1.10;;
67762;SDS011;54566;52.022;5.582;2023-06-26T15:31:17;2.55;;;1.00;;
67762;SDS011;54566;52.022;5.582;2023-06-26T15:34:01;2.70;;;1.00;;
67762;SDS011;54566;52.022;5.582;2023-06-26T15:36:38;2.47;;;1.10;;
67762;SDS011;54566;52.022;5.582;2023-06-26T15:42:09;3.97;;;0.90;;
67762;SDS011;54566;52.022;5.582;2023-06-26T15:44:38;2.33;;;1.20;;
67762;SDS011;54566;52.022;5.582;2023-06-26T15:47:24;3.17;;;1.10;;
67762;SDS011;54566;52.022;5.582;2023-06-26T15:50:02;3.53;;;0.93;;